La Jara, Colorado
Current Conditions -  °F | °C
As of 2:52 PM on Friday 24 Oct 2014 (Local Time) from KALS Reporting Station
Clear Clear  
Wind Chill: 69°   Ceiling: Unl
Heat Index: 69°   Visibility: 10mi
Dew Point: 21°   Wind: 5mph
Humidity: 16%   Direction: NA
Pressure: 30.35"   Gusts: NA
Location:  37.28°N, 105.96°W
Report Text: KALS 242052Z AUTO VRB04KT 10SM CLR 21/M06 A3035 RMK AO2 SLP225 T02061061 56022
Loading
Personal Weather Stations






























Interactive Weather Map
Tropical Storm Tracking
New forecast layout! Learn more

10-Day Weather Forecast

Advertisements
Track Severe Weather on mobile